West Tisbury, MA

10:33 PM EST on February 05, 2016 (GMT -0500)
Martha's Vineyard | | Change Station
CLOSE
Current Station
Airport
Location: Martha's Vineyard,
Elevation: 69 ft
Nearby Weather Stations

Elev 69 ft 41.39 °N, 70.61 °W | Updated 40 minutes ago

Clear
Clear
28 °F
Feels Like 18 °F
N
12
Wind Variable Wind from NW

Today
High -- | Low -- °F
--% Chance of Precip.
Yesterday
High -- | Low -- °F
Precip. -- in
Pressure 30.20 in
Visibility 10.0 miles
Clouds Clear
Windchill 18 °F
Dew Point 21 °F
Humidity 75%
Rainfall 1.67 in
Snow Depth Not available.
6:50 AM 5:03 PM
Waning Crescent, 8% visible
METAR KMVY 060253Z AUTO 32010KT 10SM CLR M02/M06 A3020 RMK AO2 SLP227 T10221061 53034
Pressure 30.20 in
Visibility 10.0 miles
Clouds Clear
Windchill 18 °F
Dew Point 21 °F
Humidity 75%
Rainfall 1.67 in
Snow Depth Not available.
6:50 AM 5:03 PM
Waning Crescent, 8% visible
METAR KMVY 060253Z AUTO 32010KT 10SM CLR M02/M06 A3020 RMK AO2 SLP227 T10221061 53034

10-Day Weather Forecast

Almanac

Astronomy

Feb. 05, 2016 Rise Set
Actual Time
Civil Twilight
Nautical Twilight
Astronomical Twilight
Moon
Length of Visible Light
Length of Day
Tomorrow will be .
, % of the Moon is Illuminated

Today's Extremes

State Highs State Lows

Community

WunderPhotos

Upload Photos

1,890,919 photos uploaded!

WunderBlog® & News

Nearby

Air Quality

  Air Quality AQ Index Pollutant
Not available.

Snow Depth

Station Depth Elevation

Earthquake Activity

City Distance Mag. Time & Date
Minimum magnitude displayed is 2.5.

Coastal Water Temperatures

Place Temperature

Stations

Nearby Weather Stations

Station Location Temp. Windchill Dew Point Humidity Wind Precip. Elev Updated Type
                   

Watches & Warnings

Special Statement
Issued: 4:45 PM EST Feb. 5, 2016 – National Weather Service

... Patches of black ice possible overnight into tomorrow...

Temperatures are expected to drop rapidly this evening and
overnight... into the teens and low 20s. This will lead to rapid
freezing of untreated roadways and walkways... which could become
slippery with black ice.

Those commuting are urged to use caution and allow for extra time
as the ice may be difficult to see.


445 PM EST Fri Feb 5 2016

... Patches of black ice possible overnight into tomorrow...

Temperatures are expected to drop rapidly this evening and
overnight... into the teens and low 20s. This will lead to rapid
freezing of untreated roadways and walkways... which could become
slippery with black ice.

Those commuting are urged to use caution and allow for extra time
as the ice may be difficult to see.